Overview Statistics Trail Chart Weather Telemetry Raw packets
 

This is the latest recevied weather packets stored in our database for station/object TB1YZC-13. If no packets are shown the sender has not sent any weather packets the latest 10 day(s).

<< 36 37 38 39 40 >>
Time Temp. Humidity Pressure Rain* Wind** Luminosity Snow
1788100297 26.11° C 63% 1017.6 hPa - - - -
1788099695 26.67° C 61% 1017.6 hPa - - - -
1788099091 30° C 52% 1017.3 hPa - - - -
1788098488 30° C 50% 1017.3 hPa - - - -
1788097885 30° C 50% 1017.3 hPa - - - -
1788097282 30° C 49% 1017.4 hPa - - - -
1788096682 30° C 49% 1017.4 hPa - - - -
1788096075 30° C 49% 1017.3 hPa - - - -
1788095473 30° C 49% 1017.4 hPa - - - -
1788094869 30° C 45% 1017.5 hPa - - - -
1788094266 30° C 46% 1017.5 hPa - - - -
1788093663 30.56° C 43% 1017.5 hPa - - - -
1788093060 30° C 44% 1017.5 hPa - - - -
1788092457 29.44° C 46% 1017.6 hPa - - - -
1788091854 29.44° C 47% 1017.7 hPa - - - -
1788091251 29.44° C 46% 1017.7 hPa - - - -
1788090656 29.44° C 47% 1017.6 hPa - - - -
1788090045 28.33° C 49% 1017.8 hPa - - - -
1788089442 28.89° C 49% 1017.8 hPa - - - -
1788088839 28.33° C 49% 1017.9 hPa - - - -
1788088235 27.78° C 48% 1017.9 hPa - - - -
1788087632 27.78° C 49% 1018.1 hPa - - - -
1788087029 27.78° C 50% 1018 hPa - - - -
1788086426 27.78° C 49% 1018 hPa - - - -
1788085823 27.22° C 51% 1018.2 hPa - - - -

* Rain since midnight (hover to see other rain measurements)
** Current wind speed in m/s (hover to see current wind gust speed)